D/T METAR WX W/DIR W/SPE G/SPE TEMP DEWP
9/04/20 01:50 EGXW 090050Z AUTO 01007KT 9999 FEW060/// 11/05 Q1024 N (10°) 8.1mph 11°C 5°C
9/04/20 00:50 EGXW 082350Z AUTO 01006KT 9999 NCD 11/05 Q1024 N (10°) 6.9mph 11°C 5°C
8/04/20 23:50 EGXW 082250Z AUTO 33002KT 9999 NCD 11/05 Q1024 NNW (330°) 2.3mph 11°C 5°C
8/04/20 22:50 EGXW 082150Z AUTO 09003KT 9999 NCD 12/05 Q1024 E (90°) 3.5mph 12°C 5°C
8/04/20 21:50 EGXW 082050Z AUTO 12002KT 9999 SCT070/// 13/05 Q1024 ESE (120°) 2.3mph 13°C 5°C
8/04/20 20:50 EGXW 081950Z AUTO 09003KT 9999 BKN070/// 13/05 Q1024 RERA E (90°) 3.5mph 13°C 5°C
8/04/20 19:50 EGXW 081850Z AUTO 14006KT 9999 NCD 14/06 Q1023 SE (140°) 6.9mph 14°C 6°C
8/04/20 18:50 EGXW 081750Z AUTO 26004KT 9999 NCD 20/05 Q1023 W (260°) 4.6mph 20°C 5°C
8/04/20 17:50 EGXW 081650Z AUTO 22004KT 9999 NCD 21/05 Q1023 SW (220°) 4.6mph 21°C 5°C
8/04/20 16:50 EGXW 081550Z AUTO 28005KT 9999 NCD 21/05 Q1023 RERA W (280°) 5.8mph 21°C 5°C
8/04/20 15:50 EGXW 081450Z 23004KT CAVOK 20/05 Q1023 NOSIG RMK BLU BLU SW (230°) 4.6mph 20°C 5°C
8/04/20 15:20 EGXW 081420Z 21003KT CAVOK 20/05 Q1024 NOSIG RMK BLU BLU SSW (210°) 3.5mph 20°C 5°C
8/04/20 14:50 EGXW 081350Z 24007KT CAVOK 21/05 Q1024 NOSIG RMK BLU BLU WSW (240°) 8.1mph 21°C 5°C
8/04/20 14:24 EGXW 081324Z 19007KT CAVOK 20/05 Q1024 NOSIG RMK BLU BLU S (190°) 8.1mph 20°C 5°C
8/04/20 13:50 EGXW 081250Z 15004KT CAVOK 19/04 Q1024 NOSIG RMK BLU BLU SSE (150°) 4.6mph 19°C 4°C
8/04/20 13:25 EGXW 081225Z 17004KT CAVOK 19/04 Q1024 NOSIG RMK BLU BLU S (170°) 4.6mph 19°C 4°C
8/04/20 12:50 EGXW 081150Z 15005KT CAVOK 18/04 Q1025 NOSIG RMK BLU BLU SSE (150°) 5.8mph 18°C 4°C
8/04/20 12:20 EGXW 081120Z 08003KT CAVOK 18/04 Q1025 NOSIG RMK BLU BLU E (80°) 3.5mph 18°C 4°C
8/04/20 11:50 EGXW 081050Z 08005KT CAVOK 17/05 Q1025 NOSIG RMK BLU BLU E (80°) 5.8mph 17°C 5°C
8/04/20 11:22 EGXW 081022Z 10006KT CAVOK 17/05 Q1025 NOSIG RMK BLU BLU E (100°) 6.9mph 17°C 5°C
8/04/20 10:50 EGXW 080950Z 07005KT CAVOK 16/05 Q1025 NOSIG RMK BLU BLU ENE (70°) 5.8mph 16°C 5°C
8/04/20 10:22 EGXW 080922Z 04004KT CAVOK 16/06 Q1026 NOSIG RMK BLU BLU NE (40°) 4.6mph 16°C 6°C
8/04/20 09:50 EGXW 080850Z 02003KT CAVOK 14/05 Q1026 NOSIG RMK BLU BLU NNE (20°) 3.5mph 14°C 5°C
8/04/20 09:21 EGXW 080821Z 04004KT CAVOK 14/05 Q1026 NOSIG RMK BLU BLU NE (40°) 4.6mph 14°C 5°C
8/04/20 08:50 EGXW 080750Z 26001KT CAVOK 13/06 Q1026 NOSIG RMK BLU BLU W (260°) 1.2mph 13°C 6°C
8/04/20 08:26 EGXW 080726Z 31003KT CAVOK 12/05 Q1026 NOSIG RMK BLU BLU NW (310°) 3.5mph 12°C 5°C
8/04/20 07:50 EGXW 080650Z 16002KT CAVOK 10/06 Q1025 BLU NOSIG RMK BLU BLU SSE (160°) 2.3mph 10°C 6°C
8/04/20 06:50 EGXW 080550Z 15002KT CAVOK 08/05 Q1025 NOSIG RMK BLU BLU SSE (150°) 2.3mph 8°C 5°C
8/04/20 05:50 EGXW 080450Z AUTO 15002KT 9999 FEW070/// BKN120/// 08/04 Q1025 SSE (150°) 2.3mph 8°C 4°C
8/04/20 04:50 EGXW 080350Z AUTO 13002KT 9999 OVC110/// 09/04 Q1026 SE (130°) 2.3mph 9°C 4°C
8/04/20 03:50 EGXW 080250Z AUTO 12002KT 9999 FEW090/// BKN110/// 08/03 Q1026 ESE (120°) 2.3mph 8°C 3°C
8/04/20 02:50 EGXW 080150Z AUTO 17002KT 9999 SCT080/// 08/03 Q1026 S (170°) 2.3mph 8°C 3°C
8/04/20 01:50 EGXW 080050Z AUTO 15004KT 9999 NCD 09/03 Q1026 SSE (150°) 4.6mph 9°C 3°C
8/04/20 00:50 EGXW 072350Z AUTO 13006KT 9999 FEW110/// SCT150/// 09/03 Q1027 SE (130°) 6.9mph 9°C 3°C
7/04/20 23:50 EGXW 072250Z AUTO 15007KT 9999 SCT110/// BKN160/// 09/02 Q1027 SSE (150°) 8.1mph 9°C 2°C
7/04/20 22:50 EGXW 072150Z AUTO 16008KT 9999 FEW190/// 10/02 Q1027 SSE (160°) 9.2mph 10°C 2°C
7/04/20 21:50 EGXW 072050Z AUTO 13008KT 9999 SCT190/// 10/04 Q1027 SE (130°) 9.2mph 10°C 4°C
7/04/20 20:50 EGXW 071950Z AUTO 13008KT 9999 FEW210/// 11/05 Q1027 SE (130°) 9.2mph 11°C 5°C
7/04/20 19:50 EGXW 071850Z AUTO 13007KT 9999 NCD 13/05 Q1027 SE (130°) 8.1mph 13°C 5°C
7/04/20 18:50 EGXW 071750Z AUTO 16008KT 9999 FEW050/// 16/04 Q1027 SSE (160°) 9.2mph 16°C 4°C
7/04/20 18:21 EGXW 071721Z 17010KT CAVOK 16/05 Q1027 NOSIG RMK BLU BLU S (170°) 11.5mph 16°C 5°C
7/04/20 17:50 EGXW 071650Z 17009KT CAVOK 17/05 Q1027 NOSIG RMK BLU BLU S (170°) 10.4mph 17°C 5°C
7/04/20 17:20 EGXW 071620Z 16010KT CAVOK 18/05 Q1027 NOSIG RMK BLU BLU SSE (160°) 11.5mph 18°C 5°C
7/04/20 16:50 EGXW 071550Z 18011KT CAVOK 18/03 Q1027 NOSIG RMK BLU BLU S (180°) 12.7mph 18°C 3°C
7/04/20 16:20 EGXW 071520Z 17013KT CAVOK 18/04 Q1027 NOSIG RMK BLU BLU S (170°) 15.0mph 18°C 4°C
7/04/20 15:50 EGXW 071450Z 17011KT CAVOK 17/04 Q1028 NOSIG RMK BLU BLU S (170°) 12.7mph 17°C 4°C
7/04/20 15:21 EGXW 071421Z 18010KT CAVOK 17/04 Q1028 NOSIG RMK BLU BLU S (180°) 11.5mph 17°C 4°C
7/04/20 14:50 EGXW 071350Z 19010KT CAVOK 17/04 Q1028 NOSIG RMK BLU BLU S (190°) 11.5mph 17°C 4°C